Dades meteomassalio
Diari Summary for Juny 20, 2017 Units:  Metric    English   Both
« Previous Day
Next Day »
Diari Semanal Mensual Anual Personalitzat
  Maxima: Minima: Mijana:
Temperatura: 35.2 °C 20.9 °C 27.9 °C
Rosada: 18.2 °C 11.8 °C 15.7 °C
Humitat: 75 % 32 % 49 %
Velocitat del vent: 35.2 km/h 0.0 km/h 5.9 km/h
Racha vent: 35.2 km/h - -
Vent:- - SSE
Pressio: 1017.5 hPa 1013.8 hPa -
Pluja: 0.0 mm    
Historical Graphs
 
 
Tabular Data for Juny 20, 2017
Time Temperature Dew Point Pressure Wind Wind Speed Wind Gust Humidity Rainfall Rate (Hourly) solar Conditions
00:00 26.4 °C 12.1 °C 1017.5 hPa Calm     41 % 0.0 mm 0.0 W/m2 CLR
00:05 26.6 °C 12.2 °C 1017.2 hPa Calm     41 % 0.0 mm 0.0 W/m2 CLR
00:10 26.6 °C 12.2 °C 1017.2 hPa Calm     41 % 0.0 mm 0.0 W/m2 CLR
00:15 26.4 °C 12.1 °C 1017.2 hPa Calm     41 % 0.0 mm 0.0 W/m2 CLR
00:20 26.3 °C 12.4 °C 1017.2 hPa Calm     42 % 0.0 mm 0.0 W/m2 CLR
00:25 26.2 °C 12.2 °C 1017.2 hPa Calm     42 % 0.0 mm 0.0 W/m2 CLR
00:30 26.1 °C 12.2 °C 1017.2 hPa Calm     42 % 0.0 mm 0.0 W/m2 CLR
00:35 26.0 °C 12.1 °C 1017.2 hPa Calm     42 % 0.0 mm 0.0 W/m2 CLR
00:40 25.9 °C 12.1 °C 1017.2 hPa Calm     42 % 0.0 mm 0.0 W/m2 CLR
00:45 26.1 °C 11.8 °C 1017.2 hPa Calm     41 % 0.0 mm 0.0 W/m2 CLR
00:50 26.1 °C 11.8 °C 1017.2 hPa Calm     41 % 0.0 mm 0.0 W/m2 CLR
00:55 26.2 °C 11.9 °C 1017.5 hPa Calm     41 % 0.0 mm 0.0 W/m2 CLR
01:00 26.1 °C 11.8 °C 1017.2 hPa Calm     41 % 0.0 mm 0.0 W/m2 CLR
01:05 25.8 °C 11.9 °C 1017.5 hPa Calm     42 % 0.0 mm 0.0 W/m2 CLR
01:10 25.8 °C 11.9 °C 1017.5 hPa Calm     42 % 0.0 mm 0.0 W/m2 CLR
01:15 25.8 °C 11.9 °C 1017.2 hPa Calm     42 % 0.0 mm 0.0 W/m2 CLR
01:20 25.8 °C 11.9 °C 1017.2 hPa Calm     42 % 0.0 mm 0.0 W/m2 CLR
01:25 25.8 °C 11.9 °C 1017.5 hPa Calm     42 % 0.0 mm 0.0 W/m2 CLR
01:30 25.6 °C 12.1 °C 1017.2 hPa Calm     43 % 0.0 mm 0.0 W/m2 CLR
01:35 25.5 °C 12.0 °C 1017.2 hPa Calm     43 % 0.0 mm 0.0 W/m2 CLR
01:40 25.6 °C 12.1 °C 1017.2 hPa Calm     43 % 0.0 mm 0.0 W/m2 CLR
01:41 25.6 °C 12.1 °C 1017.2 hPa Calm     43 % 0.0 mm 0.0 W/m2 CLR
01:46 25.3 °C 12.5 °C 1017.2 hPa Calm     45 % 0.0 mm 0.0 W/m2 CLR
01:51 24.9 °C 12.1 °C 1017.2 hPa Calm     45 % 0.0 mm 0.0 W/m2 CLR
01:56 24.7 °C 12.3 °C 1017.2 hPa Calm     46 % 0.0 mm 0.0 W/m2 CLR
02:01 24.6 °C 11.9 °C 1017.2 hPa Calm     45 % 0.0 mm 0.0 W/m2 CLR
02:06 24.6 °C 12.5 °C 1017.2 hPa Calm     47 % 0.0 mm 0.0 W/m2 CLR
02:07 24.6 °C 12.2 °C 1017.2 hPa Calm     46 % 0.0 mm 0.0 W/m2 CLR
02:12 24.6 °C 12.5 °C 1017.2 hPa Calm     47 % 0.0 mm 0.0 W/m2 CLR
02:17 24.4 °C 12.3 °C 1017.2 hPa Calm     47 % 0.0 mm 0.0 W/m2 CLR
02:22 24.5 °C 12.4 °C 1017.2 hPa Calm     47 % 0.0 mm 0.0 W/m2 CLR
02:27 24.6 °C 12.5 °C 1016.8 hPa Calm     47 % 0.0 mm 0.0 W/m2 CLR
02:32 24.4 °C 12.1 °C 1016.8 hPa Calm     46 % 0.0 mm 0.0 W/m2 CLR
02:37 24.4 °C 12.0 °C 1016.8 hPa Calm     46 % 0.0 mm 0.0 W/m2 CLR
02:42 24.3 °C 11.9 °C 1016.8 hPa Calm     46 % 0.0 mm 0.0 W/m2 CLR
02:47 24.5 °C 11.8 °C 1017.2 hPa Calm     45 % 0.0 mm 0.0 W/m2 CLR
02:52 24.8 °C 12.1 °C 1017.2 hPa Calm     45 % 0.0 mm 0.0 W/m2 CLR
02:57 25.4 °C 13.3 °C 1017.2 hPa WNW 14.8 km/h 14.8 km/h 47 % 0.0 mm 0.0 W/m2 CLR
03:02 26.1 °C 13.9 °C 1017.2 hPa West 8.0 km/h 8.0 km/h 47 % 0.0 mm 0.0 W/m2 CLR
03:07 26.3 °C 15.3 °C 1017.2 hPa West 25.9 km/h 25.9 km/h 51 % 0.0 mm 0.0 W/m2 CLR
03:12 26.1 °C 15.5 °C 1017.2 hPa WNW 13.0 km/h 13.0 km/h 52 % 0.0 mm 0.0 W/m2 CLR
03:17 25.9 °C 15.6 °C 1017.2 hPa West 18.5 km/h 18.5 km/h 53 % 0.0 mm 0.0 W/m2 CLR
03:22 25.7 °C 15.7 °C 1017.2 hPa West 14.8 km/h 14.8 km/h 54 % 0.0 mm 0.0 W/m2 CLR
03:27 25.6 °C 15.6 °C 1017.2 hPa West 16.7 km/h 16.7 km/h 54 % 0.0 mm 0.0 W/m2 CLR
03:32 25.4 °C 15.7 °C 1017.2 hPa West 18.5 km/h 18.5 km/h 55 % 0.0 mm 0.0 W/m2 CLR
03:37 25.3 °C 15.9 °C 1017.2 hPa West 16.7 km/h 16.7 km/h 56 % 0.0 mm 0.0 W/m2 CLR
03:42 25.1 °C 16.0 °C 1017.2 hPa West 16.1 km/h 16.1 km/h 57 % 0.0 mm 0.0 W/m2 CLR
03:47 24.9 °C 16.1 °C 1017.2 hPa WNW 16.7 km/h 16.7 km/h 58 % 0.0 mm 0.0 W/m2 CLR
03:52 24.7 °C 16.2 °C 1017.2 hPa West 13.0 km/h 13.0 km/h 59 % 0.0 mm 0.0 W/m2 CLR
03:57 24.6 °C 16.1 °C 1017.2 hPa WNW 18.5 km/h 18.5 km/h 59 % 0.0 mm 0.0 W/m2 CLR
04:02 24.5 °C 16.2 °C 1017.2 hPa West 14.8 km/h 14.8 km/h 60 % 0.0 mm 0.0 W/m2 CLR
04:07 24.3 °C 16.3 °C 1017.2 hPa WNW 14.8 km/h 14.8 km/h 61 % 0.0 mm 0.0 W/m2 CLR
04:12 24.2 °C 16.2 °C 1017.2 hPa West 18.5 km/h 18.5 km/h 61 % 0.0 mm 0.0 W/m2 CLR
04:17 24.1 °C 16.4 °C 1017.2 hPa West 13.0 km/h 13.0 km/h 62 % 0.0 mm 0.0 W/m2 CLR
04:22 24.1 °C 16.3 °C 1017.2 hPa WSW 4.8 km/h 4.8 km/h 62 % 0.0 mm 0.0 W/m2 CLR
04:27 23.9 °C 16.4 °C 1016.8 hPa Calm     63 % 0.0 mm 0.0 W/m2 CLR
04:32 23.8 °C 16.6 °C 1016.8 hPa West 9.3 km/h 9.3 km/h 64 % 0.0 mm 0.0 W/m2 CLR
04:37 23.7 °C 16.5 °C 1016.8 hPa Calm     64 % 0.0 mm 0.0 W/m2 CLR
04:42 23.6 °C 16.7 °C 1016.8 hPa Calm     65 % 0.0 mm 0.0 W/m2 CLR
04:47 23.5 °C 16.6 °C 1016.8 hPa Calm     65 % 0.0 mm 0.0 W/m2 CLR
04:52 23.3 °C 16.4 °C 1016.8 hPa Calm     65 % 0.0 mm 0.0 W/m2 CLR
04:57 23.3 °C 16.6 °C 1016.8 hPa Calm     66 % 0.0 mm 0.0 W/m2 CLR
05:02 23.2 °C 16.4 °C 1016.8 hPa Calm     66 % 0.0 mm 0.0 W/m2 CLR
05:07 23.1 °C 16.3 °C 1016.8 hPa Calm     66 % 0.0 mm 0.0 W/m2 CLR
05:12 23.0 °C 16.3 °C 1016.8 hPa Calm     66 % 0.0 mm 0.0 W/m2 CLR
05:17 22.9 °C 16.3 °C 1016.8 hPa Calm     66 % 0.0 mm 0.0 W/m2 CLR
05:22 22.9 °C 16.4 °C 1016.8 hPa Calm     67 % 0.0 mm 0.0 W/m2 CLR
05:27 22.8 °C 16.3 °C 1016.5 hPa WSW 5.6 km/h 5.6 km/h 67 % 0.0 mm 0.0 W/m2 CLR
05:32 22.7 °C 16.4 °C 1016.5 hPa Calm     68 % 0.0 mm 0.0 W/m2 CLR
05:37 22.7 °C 16.7 °C 1016.5 hPa Calm     69 % 0.0 mm 0.0 W/m2 CLR
05:42 22.6 °C 16.6 °C 1016.5 hPa Calm     69 % 0.0 mm 0.0 W/m2 CLR
05:47 22.4 °C 16.5 °C 1016.5 hPa Calm     69 % 0.0 mm 0.0 W/m2 CLR
05:52 22.3 °C 16.4 °C 1016.5 hPa Calm     69 % 0.0 mm 0.0 W/m2 CLR
05:57 22.2 °C 16.5 °C 1016.5 hPa Calm     70 % 0.0 mm 0.0 W/m2 CLR
06:02 22.1 °C 16.4 °C 1016.5 hPa Calm     70 % 0.0 mm 0.0 W/m2 CLR
06:07 21.9 °C 16.2 °C 1016.5 hPa Calm     70 % 0.0 mm 0.0 W/m2 CLR
06:12 21.8 °C 16.3 °C 1016.5 hPa Calm     71 % 0.0 mm 0.0 W/m2 CLR
06:17 21.7 °C 16.2 °C 1016.1 hPa Calm     71 % 0.0 mm 0.0 W/m2 OVC
06:22 21.6 °C 16.1 °C 1016.1 hPa Calm     71 % 0.0 mm 0.0 W/m2 OVC
06:27 21.5 °C 16.2 °C 1016.5 hPa Calm     72 % 0.0 mm 0.0 W/m2 OVC
06:32 21.4 °C 16.1 °C 1016.5 hPa Calm     72 % 0.0 mm 5.0 W/m2 OVC
06:33 21.4 °C 16.1 °C 1016.5 hPa Calm     72 % 0.0 mm 5.0 W/m2 OVC
06:38 21.3 °C 16.0 °C 1016.5 hPa Calm     72 % 0.0 mm 7.0 W/m2 BKN
06:43 21.1 °C 16.1 °C 1016.5 hPa Calm     73 % 0.0 mm 11.0 W/m2 BKN
06:48 21.0 °C 16.0 °C 1016.5 hPa Calm     73 % 0.0 mm 16.0 W/m2 BKN
06:53 20.9 °C 16.1 °C 1016.5 hPa Calm     74 % 0.0 mm 19.0 W/m2 BKN
06:58 20.9 °C 16.3 °C 1016.5 hPa Calm     75 % 0.0 mm 23.0 W/m2 BKN
07:03 20.9 °C 16.1 °C 1016.5 hPa Calm     74 % 0.0 mm 26.0 W/m2 BKN
07:08 20.9 °C 16.1 °C 1016.5 hPa Calm     74 % 0.0 mm 35.0 W/m2 BKN
07:13 20.9 °C 16.3 °C 1016.5 hPa Calm     75 % 0.0 mm 44.0 W/m2 BKN
07:18 20.9 °C 16.3 °C 1016.5 hPa Calm     75 % 0.0 mm 53.0 W/m2 SCT
07:23 21.1 °C 16.2 °C 1016.8 hPa Calm     74 % 0.0 mm 63.0 W/m2 SCT
07:28 21.2 °C 16.4 °C 1016.8 hPa Calm     74 % 0.0 mm 74.0 W/m2 SCT
07:33 21.3 °C 16.2 °C 1016.8 hPa Calm     73 % 0.0 mm 86.0 W/m2 FEW
07:39 21.5 °C 16.7 °C 1016.8 hPa Calm     74 % 0.0 mm 98.0 W/m2 FEW
07:44 21.8 °C 16.7 °C 1016.8 hPa Calm     73 % 0.0 mm 111.0 W/m2 CLR
07:49 22.0 °C 16.7 °C 1016.8 hPa Calm     72 % 0.0 mm 125.0 W/m2 CLR
07:54 22.3 °C 16.8 °C 1016.8 hPa Calm     71 % 0.0 mm 142.0 W/m2 CLR
07:59 22.7 °C 16.9 °C 1016.8 hPa Calm     70 % 0.0 mm 158.0 W/m2 CLR
08:04 22.8 °C 16.6 °C 1016.8 hPa Calm     68 % 0.0 mm 172.0 W/m2 CLR
08:09 23.0 °C 16.8 °C 1016.8 hPa Calm     68 % 0.0 mm 188.0 W/m2 CLR
08:14 23.2 °C 16.5 °C 1016.8 hPa Calm     66 % 0.0 mm 204.0 W/m2 CLR
08:19 23.5 °C 16.6 °C 1016.8 hPa Calm     65 % 0.0 mm 220.0 W/m2 CLR
08:24 23.8 °C 16.6 °C 1016.8 hPa Calm     64 % 0.0 mm 234.0 W/m2 CLR
08:29 24.1 °C 16.8 °C 1016.8 hPa Calm     64 % 0.0 mm 248.0 W/m2 CLR
08:30 24.1 °C 16.6 °C 1016.8 hPa Calm     63 % 0.0 mm 251.0 W/m2 CLR
08:35 24.3 °C 16.6 °C 1016.8 hPa Calm     62 % 0.0 mm 269.0 W/m2 CLR
08:40 24.4 °C 16.7 °C 1016.8 hPa Calm     62 % 0.0 mm 281.0 W/m2 CLR
08:45 24.7 °C 16.7 °C 1016.8 hPa Calm     61 % 0.0 mm 292.0 W/m2 CLR
08:50 25.1 °C 16.6 °C 1016.8 hPa Calm     59 % 0.0 mm 308.0 W/m2 CLR
08:55 25.5 °C 16.6 °C 1016.8 hPa Calm     58 % 0.0 mm 322.0 W/m2 CLR
09:00 25.7 °C 16.6 °C 1016.8 hPa Calm     57 % 0.0 mm 338.0 W/m2 CLR
09:05 25.9 °C 16.2 °C 1016.8 hPa Calm     55 % 0.0 mm 357.0 W/m2 CLR
09:10 26.1 °C 16.4 °C 1016.8 hPa Calm     55 % 0.0 mm 369.0 W/m2 CLR
09:15 26.4 °C 16.3 °C 1016.8 hPa Calm     54 % 0.0 mm 385.0 W/m2 CLR
09:20 26.8 °C 16.7 °C 1016.8 hPa Calm     54 % 0.0 mm 403.0 W/m2 CLR
09:25 26.9 °C 16.2 °C 1016.8 hPa Calm     52 % 0.0 mm 417.0 W/m2 CLR
09:30 27.1 °C 16.1 °C 1016.8 hPa Calm     51 % 0.0 mm 434.0 W/m2 CLR
09:35 27.2 °C 15.3 °C 1016.8 hPa Calm     48 % 0.0 mm 443.0 W/m2 CLR
09:40 27.2 °C 15.9 °C 1016.8 hPa Calm     50 % 0.0 mm 468.0 W/m2 CLR
09:45 27.3 °C 15.3 °C 1016.8 hPa Calm     48 % 0.0 mm 475.0 W/m2 CLR
09:50 27.5 °C 15.8 °C 1016.8 hPa Calm     49 % 0.0 mm 483.0 W/m2 CLR
09:55 27.8 °C 16.8 °C 1016.8 hPa Calm     51 % 0.0 mm 483.0 W/m2 CLR
10:00 28.1 °C 16.4 °C 1016.8 hPa Calm     49 % 0.0 mm 513.0 W/m2 CLR
10:05 28.2 °C 17.1 °C 1016.8 hPa ENE 5.6 km/h 5.6 km/h 51 % 0.0 mm 527.0 W/m2 CLR
10:10 28.1 °C 15.7 °C 1016.8 hPa Calm     47 % 0.0 mm 545.0 W/m2 CLR
10:15 28.2 °C 16.5 °C 1016.8 hPa Calm     49 % 0.0 mm 555.0 W/m2 CLR
10:20 28.4 °C 16.9 °C 1016.8 hPa ENE 7.4 km/h 7.4 km/h 50 % 0.0 mm 573.0 W/m2 CLR
10:25 28.4 °C 16.3 °C 1016.8 hPa Calm     48 % 0.0 mm 585.0 W/m2 CLR
10:30 28.4 °C 17.3 °C 1016.8 hPa ESE 8.0 km/h 8.0 km/h 51 % 0.0 mm 599.0 W/m2 CLR
10:35 28.7 °C 17.6 °C 1016.8 hPa Calm     51 % 0.0 mm 613.0 W/m2 CLR
10:40 28.8 °C 17.6 °C 1016.8 hPa Calm     51 % 0.0 mm 628.0 W/m2 CLR
10:45 29.0 °C 18.2 °C 1016.8 hPa ENE 5.6 km/h 5.6 km/h 52 % 0.0 mm 638.0 W/m2 CLR
10:46 29.1 °C 17.9 °C 1016.8 hPa Calm     51 % 0.0 mm 643.0 W/m2 CLR
10:50 29.2 °C 18.1 °C 1016.8 hPa NE 9.3 km/h 9.3 km/h 51 % 0.0 mm 652.0 W/m2 CLR
10:55 29.2 °C 18.1 °C 1016.8 hPa ENE 14.8 km/h 14.8 km/h 51 % 0.0 mm 664.0 W/m2 CLR
11:00 29.1 °C 17.9 °C 1016.8 hPa NE 7.4 km/h 7.4 km/h 51 % 0.0 mm 677.0 W/m2 CLR
11:05 29.2 °C 18.0 °C 1016.8 hPa ENE 7.4 km/h 7.4 km/h 51 % 0.0 mm 684.0 W/m2 CLR
11:10 29.2 °C 17.4 °C 1016.8 hPa Calm     49 % 0.0 mm 700.0 W/m2 CLR
11:15 29.4 °C 17.6 °C 1017.2 hPa Calm     49 % 0.0 mm 708.0 W/m2 CLR
11:20 29.6 °C 17.8 °C 1017.2 hPa NE 5.6 km/h 5.6 km/h 49 % 0.0 mm 719.0 W/m2 CLR
11:25 29.8 °C 17.3 °C 1017.2 hPa NE 5.6 km/h 5.6 km/h 47 % 0.0 mm 728.0 W/m2 CLR
11:30 29.8 °C 17.3 °C 1017.2 hPa Calm     47 % 0.0 mm 742.0 W/m2 CLR
11:35 29.9 °C 18.0 °C 1017.2 hPa NE 9.3 km/h   49 % 0.0 mm 749.0 W/m2 CLR
11:40 30.2 °C 17.7 °C 1017.2 hPa ENE 7.4 km/h 7.4 km/h 47 % 0.0 mm 759.0 W/m2 CLR
11:45 30.5 °C 17.6 °C 1017.2 hPa Calm     46 % 0.0 mm 768.0 W/m2 CLR
11:50 30.7 °C 17.8 °C 1017.2 hPa Calm     46 % 0.0 mm 782.0 W/m2 CLR
11:55 30.8 °C 17.9 °C 1017.2 hPa East 6.4 km/h 6.4 km/h 46 % 0.0 mm 789.0 W/m2 CLR
12:00 30.8 °C 17.5 °C 1016.8 hPa ENE 5.6 km/h 5.6 km/h 45 % 0.0 mm 802.0 W/m2 CLR
12:05 30.8 °C 17.9 °C 1016.8 hPa Calm     46 % 0.0 mm 807.0 W/m2 CLR
12:10 31.1 °C 17.8 °C 1016.8 hPa NNE 8.0 km/h 8.0 km/h 45 % 0.0 mm 814.0 W/m2 CLR
12:15 31.3 °C 17.9 °C 1016.8 hPa NNE 13.0 km/h 13.0 km/h 45 % 0.0 mm 828.0 W/m2 CLR
12:20 31.2 °C 17.9 °C 1016.8 hPa East 5.6 km/h 5.6 km/h 45 % 0.0 mm 831.0 W/m2 CLR
12:25 31.0 °C 17.7 °C 1016.8 hPa Calm     45 % 0.0 mm 840.0 W/m2 CLR
12:30 31.1 °C 17.8 °C 1016.8 hPa ENE 5.6 km/h 5.6 km/h 45 % 0.0 mm 844.0 W/m2 CLR
12:35 31.1 °C 17.8 °C 1016.8 hPa ENE 9.3 km/h 9.3 km/h 45 % 0.0 mm 847.0 W/m2 CLR
12:40 31.0 °C 17.7 °C 1016.8 hPa NE 3.7 km/h 4.0 km/h 45 % 0.0 mm 854.0 W/m2 CLR
12:41 30.9 °C 17.6 °C 1016.8 hPa ENE 9.7 km/h 9.7 km/h 45 % 0.0 mm 854.0 W/m2 CLR
12:46 31.1 °C 17.7 °C 1016.8 hPa NNE 5.6 km/h   45 % 0.0 mm 861.0 W/m2 CLR
12:51 30.9 °C 17.6 °C 1016.8 hPa NE 11.1 km/h 11.1 km/h 45 % 0.0 mm 867.0 W/m2 CLR
12:56 31.1 °C 17.8 °C 1016.8 hPa ENE 9.3 km/h 9.3 km/h 45 % 0.0 mm 868.0 W/m2 CLR
13:01 31.3 °C 17.6 °C 1016.8 hPa East 3.7 km/h 3.7 km/h 44 % 0.0 mm 877.0 W/m2 CLR
13:06 31.5 °C 17.4 °C 1016.8 hPa East 9.7 km/h 9.7 km/h 43 % 0.0 mm 881.0 W/m2 CLR
13:11 31.6 °C 17.5 °C 1016.5 hPa Calm     43 % 0.0 mm 888.0 W/m2 CLR
13:16 31.8 °C 17.7 °C 1016.5 hPa NE 20.4 km/h 20.4 km/h 43 % 0.0 mm 889.0 W/m2 CLR
13:21 31.8 °C 17.3 °C 1016.5 hPa Calm     42 % 0.0 mm 895.0 W/m2 CLR
13:26 32.0 °C 17.5 °C 1016.5 hPa ENE 3.7 km/h 3.7 km/h 42 % 0.0 mm 888.0 W/m2 CLR
13:31 32.2 °C 17.7 °C 1016.5 hPa ENE 7.4 km/h 7.4 km/h 42 % 0.0 mm 935.0 W/m2 CLR
13:36 32.2 °C 17.3 °C 1016.5 hPa Calm     41 % 0.0 mm 937.0 W/m2 CLR
13:41 32.2 °C 17.3 °C 1016.5 hPa ENE 14.8 km/h 14.8 km/h 41 % 0.0 mm 849.0 W/m2 CLR
13:46 32.3 °C 17.4 °C 1016.5 hPa ENE 14.8 km/h 14.8 km/h 41 % 0.0 mm 918.0 W/m2 CLR
13:51 32.4 °C 17.1 °C 1016.5 hPa ENE 9.3 km/h 9.3 km/h 40 % 0.0 mm 911.0 W/m2 CLR
13:56 32.4 °C 17.1 °C 1016.5 hPa ENE 1.9 km/h   40 % 0.0 mm 911.0 W/m2 CLR
14:01 32.4 °C 16.7 °C 1016.5 hPa East 1.9 km/h 1.9 km/h 39 % 0.0 mm 909.0 W/m2 CLR
14:06 32.6 °C 16.8 °C 1016.5 hPa ENE 13.0 km/h 13.0 km/h 39 % 0.0 mm 907.0 W/m2 CLR
14:11 32.7 °C 16.9 °C 1016.1 hPa ENE 9.3 km/h 9.3 km/h 39 % 0.0 mm 911.0 W/m2 CLR
14:16 32.7 °C 16.9 °C 1016.1 hPa NE 5.6 km/h 5.6 km/h 39 % 0.0 mm 916.0 W/m2 CLR
14:21 32.9 °C 17.2 °C 1016.1 hPa NE 7.4 km/h 7.4 km/h 39 % 0.0 mm 919.0 W/m2 CLR
14:26 33.2 °C 16.9 °C 1016.1 hPa East 1.9 km/h 1.9 km/h 38 % 0.0 mm 919.0 W/m2 CLR
14:31 33.4 °C 16.7 °C 1016.1 hPa Calm     37 % 0.0 mm 923.0 W/m2 CLR
14:36 33.8 °C 16.6 °C 1015.8 hPa Calm     36 % 0.0 mm 942.0 W/m2 CLR
14:41 33.7 °C 16.6 °C 1015.8 hPa ENE 5.6 km/h 5.6 km/h 36 % 0.0 mm 905.0 W/m2 CLR
14:46 33.8 °C 16.6 °C 1015.8 hPa East 11.1 km/h 11.1 km/h 36 % 0.0 mm 949.0 W/m2 CLR
14:51 33.7 °C 16.1 °C 1015.8 hPa NE 7.4 km/h 7.4 km/h 35 % 0.0 mm 928.0 W/m2 CLR
14:56 33.6 °C 16.4 °C 1015.5 hPa Calm     36 % 0.0 mm 911.0 W/m2 CLR
15:01 33.9 °C 16.7 °C 1015.5 hPa ESE 5.6 km/h 5.6 km/h 36 % 0.0 mm 904.0 W/m2 CLR
15:06 33.9 °C 16.3 °C 1015.5 hPa East 7.4 km/h 7.4 km/h 35 % 0.0 mm 888.0 W/m2 CLR
15:11 33.7 °C 16.1 °C 1015.1 hPa ESE 11.1 km/h 11.1 km/h 35 % 0.0 mm 893.0 W/m2 CLR
15:16 33.7 °C 16.1 °C 1015.1 hPa Calm     35 % 0.0 mm 884.0 W/m2 CLR
15:21 33.7 °C 16.6 °C 1015.1 hPa WSW 5.6 km/h   36 % 0.0 mm 877.0 W/m2 CLR
15:26 34.2 °C 16.1 °C 1014.8 hPa ENE 14.5 km/h 14.5 km/h 34 % 0.0 mm 870.0 W/m2 CLR
15:31 34.5 °C 16.3 °C 1014.8 hPa NE 7.4 km/h   34 % 0.0 mm 867.0 W/m2 CLR
15:36 35.0 °C 16.3 °C 1014.8 hPa NE 9.3 km/h 9.3 km/h 33 % 0.0 mm 853.0 W/m2 CLR
15:42 35.1 °C 16.4 °C 1014.8 hPa ENE 5.6 km/h 6.9 km/h 33 % 0.0 mm 842.0 W/m2 CLR
15:47 34.9 °C 15.7 °C 1014.4 hPa WSW 5.6 km/h 5.6 km/h 32 % 0.0 mm 849.0 W/m2 CLR
15:52 34.9 °C 16.3 °C 1014.4 hPa Calm   0.3 km/h 33 % 0.0 mm 860.0 W/m2 CLR
15:57 34.9 °C 15.7 °C 1014.4 hPa NE 5.6 km/h 5.6 km/h 32 % 0.0 mm 875.0 W/m2 CLR
16:02 34.9 °C 15.7 °C 1014.4 hPa ENE 8.0 km/h 8.0 km/h 32 % 0.0 mm 874.0 W/m2 CLR
16:07 34.8 °C 15.7 °C 1014.4 hPa ENE 18.5 km/h 18.5 km/h 32 % 0.0 mm 856.0 W/m2 CLR
16:12 34.5 °C 15.9 °C 1014.1 hPa ESE 11.1 km/h 11.1 km/h 33 % 0.0 mm 288.0 W/m2 CLR
16:17 34.4 °C 15.4 °C 1014.1 hPa NNE 13.0 km/h 13.0 km/h 32 % 0.0 mm 838.0 W/m2 CLR
16:22 34.2 °C 15.2 °C 1014.1 hPa Calm     32 % 0.0 mm 234.0 W/m2 CLR
16:27 34.1 °C 15.6 °C 1013.8 hPa South 7.4 km/h 7.4 km/h 33 % 0.0 mm 898.0 W/m2 CLR
16:32 34.5 °C 15.4 °C 1013.8 hPa South 13.0 km/h 13.0 km/h 32 % 0.0 mm 893.0 W/m2 CLR
16:37 34.9 °C 15.8 °C 1013.8 hPa South 9.7 km/h 9.7 km/h 32 % 0.0 mm 765.0 W/m2 CLR
16:42 35.2 °C 17.0 °C 1014.1 hPa WNW 18.5 km/h 18.5 km/h 34 % 0.0 mm 773.0 W/m2 CLR
16:47 34.6 °C 17.3 °C 1013.8 hPa ESE 18.5 km/h 18.5 km/h 36 % 0.0 mm 258.0 W/m2 CLR
16:52 34.1 °C 17.8 °C 1013.8 hPa SSE 14.8 km/h 14.8 km/h 38 % 0.0 mm 422.0 W/m2 CLR
16:57 33.9 °C 17.6 °C 1013.8 hPa SSE 9.7 km/h 9.7 km/h 38 % 0.0 mm 422.0 W/m2 CLR
17:02 33.8 °C 17.6 °C 1013.8 hPa SSE 9.7 km/h 9.7 km/h 38 % 0.0 mm 334.0 W/m2 CLR
17:07 33.9 °C 17.6 °C 1013.8 hPa Calm     38 % 0.0 mm 246.0 W/m2 CLR
17:12 33.8 °C 17.6 °C 1013.8 hPa Calm     38 % 0.0 mm 241.0 W/m2 CLR
17:17 33.6 °C 17.7 °C 1014.1 hPa SSW 13.0 km/h 13.0 km/h 39 % 0.0 mm 221.0 W/m2 CLR
17:22 33.5 °C 18.1 °C 1014.1 hPa South 16.7 km/h 16.7 km/h 40 % 0.0 mm 221.0 W/m2 CLR
17:27 33.2 °C 17.8 °C 1014.1 hPa SE 14.8 km/h 14.8 km/h 40 % 0.0 mm 239.0 W/m2 CLR
17:32 33.0 °C 18.0 °C 1014.1 hPa SSE 19.3 km/h 19.3 km/h 41 % 0.0 mm 244.0 W/m2 CLR
17:37 32.7 °C 18.1 °C 1014.4 hPa SSE 20.4 km/h 20.4 km/h 42 % 0.0 mm 246.0 W/m2 CLR
17:42 32.5 °C 17.9 °C 1014.4 hPa South 20.4 km/h 20.4 km/h 42 % 0.0 mm 230.0 W/m2 CLR
17:47 32.4 °C 18.2 °C 1014.4 hPa SSE 27.8 km/h 27.8 km/h 43 % 0.0 mm 223.0 W/m2 CLR
17:52 32.1 °C 17.9 °C 1014.1 hPa SSE 27.8 km/h 27.8 km/h 43 % 0.0 mm 202.0 W/m2 CLR
17:57 31.8 °C 17.7 °C 1014.1 hPa SSE 20.4 km/h 20.4 km/h 43 % 0.0 mm 188.0 W/m2 CLR
18:02 31.7 °C 17.6 °C 1014.1 hPa South 14.8 km/h 14.8 km/h 43 % 0.0 mm 183.0 W/m2 CLR
18:07 31.7 °C 17.6 °C 1014.1 hPa South 14.8 km/h 14.8 km/h 43 % 0.0 mm 186.0 W/m2 CLR
18:12 31.4 °C 17.7 °C 1014.1 hPa South 22.2 km/h 22.2 km/h 44 % 0.0 mm 197.0 W/m2 CLR
18:17 31.2 °C 17.5 °C 1014.1 hPa South 24.1 km/h 24.1 km/h 44 % 0.0 mm 214.0 W/m2 CLR
18:22 31.2 °C 15.9 °C 1014.4 hPa South 27.8 km/h 27.8 km/h 40 % 0.0 mm 230.0 W/m2 CLR
18:27 31.1 °C 15.4 °C 1014.4 hPa South 35.2 km/h 35.2 km/h 39 % 0.0 mm 236.0 W/m2 CLR
18:32 31.1 °C 15.9 °C 1014.4 hPa South 22.2 km/h 22.2 km/h 40 % 0.0 mm 199.0 W/m2 CLR
18:37 31.2 °C 16.4 °C 1014.4 hPa South 27.8 km/h 27.8 km/h 41 % 0.0 mm 220.0 W/m2 CLR
18:42 31.3 °C 16.5 °C 1014.4 hPa SW 18.5 km/h 18.5 km/h 41 % 0.0 mm 229.0 W/m2 CLR
18:47 31.3 °C 16.4 °C 1014.4 hPa SSW 22.2 km/h 22.2 km/h 41 % 0.0 mm 214.0 W/m2 CLR
18:52 31.2 °C 16.8 °C 1014.4 hPa West 18.5 km/h 18.5 km/h 42 % 0.0 mm 199.0 W/m2 CLR
18:57 31.2 °C 16.8 °C 1014.4 hPa SSW 14.8 km/h 14.8 km/h 42 % 0.0 mm 183.0 W/m2 CLR
19:02 31.2 °C 16.4 °C 1014.4 hPa WSW 16.7 km/h 16.7 km/h 41 % 0.0 mm 172.0 W/m2 CLR
19:07 31.1 °C 16.3 °C 1014.4 hPa SW 22.2 km/h 22.2 km/h 41 % 0.0 mm 163.0 W/m2 CLR
19:12 30.8 °C 16.4 °C 1014.4 hPa WSW 20.4 km/h 20.4 km/h 42 % 0.0 mm 155.0 W/m2 CLR
19:17 30.6 °C 16.2 °C 1014.4 hPa WSW 13.0 km/h 13.0 km/h 42 % 0.0 mm 146.0 W/m2 CLR
19:22 30.3 °C 16.0 °C 1014.4 hPa SW 18.5 km/h 18.5 km/h 42 % 0.0 mm 141.0 W/m2 CLR
19:27 30.3 °C 15.9 °C 1014.4 hPa SSW 11.1 km/h 11.1 km/h 42 % 0.0 mm 134.0 W/m2 CLR
19:32 30.2 °C 15.9 °C 1014.4 hPa SW 13.0 km/h 13.0 km/h 42 % 0.0 mm 128.0 W/m2 CLR
19:33 30.2 °C 15.9 °C 1014.4 hPa SW 13.0 km/h 13.0 km/h 42 % 0.0 mm 128.0 W/m2 CLR
19:38 30.1 °C 15.4 °C 1014.8 hPa WSW 16.7 km/h 16.7 km/h 41 % 0.0 mm 127.0 W/m2 CLR
19:43 30.2 °C 15.4 °C 1014.8 hPa WSW 20.4 km/h 20.4 km/h 41 % 0.0 mm 128.0 W/m2 CLR
19:48 30.1 °C 15.0 °C 1014.8 hPa West 18.5 km/h 18.5 km/h 40 % 0.0 mm 109.0 W/m2 CLR
19:53 30.0 °C 14.9 °C 1014.8 hPa WSW 25.9 km/h 25.9 km/h 40 % 0.0 mm 104.0 W/m2 CLR
19:58 29.9 °C 14.4 °C 1014.8 hPa WSW 24.1 km/h 24.1 km/h 39 % 0.0 mm 102.0 W/m2 CLR
20:03 29.8 °C 13.5 °C 1014.8 hPa SW 20.4 km/h 20.4 km/h 37 % 0.0 mm 104.0 W/m2 CLR
20:08 29.7 °C 13.5 °C 1014.8 hPa SSW 20.4 km/h 20.4 km/h 37 % 0.0 mm 111.0 W/m2 CLR
20:13 29.7 °C 13.8 °C 1014.8 hPa SSW 14.8 km/h 14.8 km/h 38 % 0.0 mm 116.0 W/m2 CLR
20:18 29.7 °C 13.9 °C 1014.8 hPa SSW 18.5 km/h 18.5 km/h 38 % 0.0 mm 132.0 W/m2 CLR
20:23 29.7 °C 13.8 °C 1014.8 hPa SW 20.4 km/h 20.4 km/h 38 % 0.0 mm 123.0 W/m2 CLR
20:28 29.6 °C 13.7 °C 1014.8 hPa South 20.4 km/h 20.4 km/h 38 % 0.0 mm 84.0 W/m2 CLR
20:33 29.4 °C 14.1 °C 1014.8 hPa SSW 18.5 km/h 18.5 km/h 39 % 0.0 mm 113.0 W/m2 CLR
20:38 29.4 °C 14.1 °C 1014.8 hPa SSW 9.3 km/h 9.3 km/h 39 % 0.0 mm 100.0 W/m2 CLR
20:43 29.4 °C 14.0 °C 1014.8 hPa SSW 11.1 km/h 11.1 km/h 39 % 0.0 mm 51.0 W/m2 SCT
20:48 29.3 °C 13.9 °C 1014.8 hPa SSW 9.3 km/h 9.3 km/h 39 % 0.0 mm 39.0 W/m2 BKN
20:53 29.2 °C 13.8 °C 1014.8 hPa Calm     39 % 0.0 mm 32.0 W/m2 BKN
20:58 29.2 °C 14.2 °C 1014.8 hPa Calm     40 % 0.0 mm 28.0 W/m2 BKN
21:03 28.8 °C 14.6 °C 1014.8 hPa ESE 13.0 km/h 13.0 km/h 42 % 0.0 mm 25.0 W/m2 BKN
21:08 28.6 °C 14.4 °C 1014.8 hPa ESE 9.3 km/h 9.3 km/h 42 % 0.0 mm 19.0 W/m2 BKN
21:13 28.3 °C 14.6 °C 1014.8 hPa Calm     43 % 0.0 mm 14.0 W/m2 BKN
21:18 28.2 °C 14.4 °C 1014.8 hPa Calm     43 % 0.0 mm 9.0 W/m2 BKN
21:23 28.1 °C 14.3 °C 1014.8 hPa Calm     43 % 0.0 mm 7.0 W/m2 BKN
21:28 28.1 °C 14.3 °C 1014.8 hPa Calm     43 % 0.0 mm 5.0 W/m2 OVC
21:33 28.0 °C 14.3 °C 1014.8 hPa Calm     43 % 0.0 mm 0.0 W/m2 OVC
21:38 28.0 °C 13.9 °C 1014.8 hPa Calm     42 % 0.0 mm 0.0 W/m2 OVC
21:43 28.0 °C 13.9 °C 1014.8 hPa Calm     42 % 0.0 mm 0.0 W/m2 OVC
21:48 27.9 °C 13.8 °C 1014.8 hPa Calm     42 % 0.0 mm 0.0 W/m2 CLR
21:53 27.7 °C 14.0 °C 1014.8 hPa Calm     43 % 0.0 mm 0.0 W/m2 CLR
21:58 27.3 °C 13.7 °C 1015.1 hPa WSW 7.4 km/h 7.4 km/h 43 % 0.0 mm 0.0 W/m2 CLR
22:03 27.1 °C 13.8 °C 1015.1 hPa WSW 7.4 km/h 7.4 km/h 44 % 0.0 mm 0.0 W/m2 CLR
22:08 27.0 °C 13.7 °C 1015.1 hPa Calm     44 % 0.0 mm 0.0 W/m2 CLR
22:13 26.9 °C 13.7 °C 1015.1 hPa Calm     44 % 0.0 mm 0.0 W/m2 CLR
22:18 26.8 °C 13.9 °C 1015.5 hPa Calm     45 % 0.0 mm 0.0 W/m2 CLR
22:23 26.7 °C 13.7 °C 1015.5 hPa Calm     45 % 0.0 mm 0.0 W/m2 CLR
22:28 26.6 °C 14.1 °C 1015.5 hPa Calm     46 % 0.0 mm 0.0 W/m2 CLR
22:33 26.3 °C 14.1 °C 1015.5 hPa Calm     47 % 0.0 mm 0.0 W/m2 CLR
22:38 26.1 °C 14.2 °C 1015.5 hPa Calm     48 % 0.0 mm 0.0 W/m2 CLR
22:43 25.9 °C 14.3 °C 1015.8 hPa Calm     49 % 0.0 mm 0.0 W/m2 CLR
22:48 25.7 °C 14.8 °C 1015.8 hPa Calm     51 % 0.0 mm 0.0 W/m2 CLR
22:53 25.6 °C 14.9 °C 1015.8 hPa Calm     52 % 0.0 mm 0.0 W/m2 CLR
22:58 25.5 °C 14.9 °C 1015.8 hPa Calm     52 % 0.0 mm 0.0 W/m2 CLR
23:03 25.5 °C 14.9 °C 1015.8 hPa Calm     52 % 0.0 mm 0.0 W/m2 CLR
23:04 25.5 °C 14.9 °C 1015.8 hPa Calm     52 % 0.0 mm 0.0 W/m2 CLR
23:09 25.4 °C 15.7 °C 1016.1 hPa Calm     55 % 0.0 mm 0.0 W/m2 CLR
23:14 25.4 °C 16.3 °C 1016.1 hPa Calm     57 % 0.0 mm 0.0 W/m2 CLR
23:19 25.3 °C 16.2 °C 1016.1 hPa Calm     57 % 0.0 mm 0.0 W/m2 CLR
23:24 25.3 °C 16.2 °C 1016.1 hPa Calm     57 % 0.0 mm 0.0 W/m2 CLR
23:29 25.2 °C 16.1 °C 1016.1 hPa Calm     57 % 0.0 mm 0.0 W/m2 CLR
23:34 25.1 °C 16.3 °C 1016.1 hPa Calm     58 % 0.0 mm 0.0 W/m2 CLR
23:39 25.1 °C 16.2 °C 1016.1 hPa Calm     58 % 0.0 mm 0.0 W/m2 CLR
23:44 25.0 °C 15.9 °C 1016.1 hPa Calm     57 % 0.0 mm 0.0 W/m2 CLR
23:49 24.9 °C 15.6 °C 1015.8 hPa Calm     56 % 0.0 mm 0.0 W/m2 CLR
23:54 24.9 °C 15.6 °C 1015.8 hPa Calm     56 % 0.0 mm 0.0 W/m2 CLR
23:59 24.9 °C 15.2 °C 1015.8 hPa Calm     55 % 0.0 mm 0.0 W/m2 CLR
Lo Temps de Massalio
Compliments of Weather Underground - 1.25 mb